createdAt,value
2023-04-26T00:00:54.361Z,47.45
2023-04-26T00:03:25.591Z,47.87
2023-04-26T00:05:56.501Z,47.46
2023-04-26T00:08:27.362Z,46.74
2023-04-26T00:10:57.815Z,46.11
2023-04-26T00:13:29.863Z,47.02
2023-04-26T00:16:00.331Z,46.57
2023-04-26T00:18:30.795Z,47.38
2023-04-26T00:21:01.204Z,47.30
2023-04-26T00:23:31.711Z,47.45
2023-04-26T00:26:02.133Z,47.10
2023-04-26T00:28:34.206Z,47.00
2023-04-26T00:31:04.619Z,46.95
2023-04-26T00:33:35.013Z,46.69
2023-04-26T00:36:05.475Z,46.73
2023-04-26T00:38:35.851Z,47.04
2023-04-26T00:41:07.400Z,46.91
2023-04-26T00:43:39.466Z,46.74
2023-04-26T00:46:11.451Z,47.57
2023-04-26T00:48:41.989Z,48.03
2023-04-26T00:51:12.715Z,48.86
2023-04-26T00:53:43.860Z,48.89
2023-04-26T00:56:14.795Z,49.15
2023-04-26T00:58:47.120Z,49.52
2023-04-26T01:01:17.528Z,49.51
2023-04-26T01:03:48.734Z,49.44
2023-04-26T01:06:19.662Z,49.55
2023-04-26T01:08:50.550Z,50.37
2023-04-26T01:11:23.106Z,50.55
2023-04-26T01:13:55.778Z,51.24
2023-04-26T01:16:26.829Z,52.90
2023-04-26T01:18:57.928Z,54.31
2023-04-26T01:21:28.411Z,55.03
2023-04-26T01:24:00.364Z,56.93
2023-04-26T01:26:30.672Z,58.01
2023-04-26T01:29:01.248Z,58.84
2023-04-26T01:31:31.749Z,59.88
2023-04-26T01:34:02.220Z,60.58
2023-04-26T01:36:33.358Z,60.76
2023-04-26T01:39:06.130Z,61.32
2023-04-26T01:41:36.603Z,62.64
2023-04-26T01:44:07.473Z,63.23
2023-04-26T01:46:37.934Z,63.50
2023-04-26T01:49:08.795Z,65.28
2023-04-26T01:51:39.270Z,66.17
2023-04-26T01:54:11.378Z,67.59
2023-04-26T01:56:42.119Z,68.62
2023-04-26T01:59:12.510Z,69.26
2023-04-26T02:01:45.336Z,69.83
2023-04-26T02:04:15.797Z,70.58
2023-04-26T02:06:46.168Z,71.47
2023-04-26T02:09:19.096Z,73.05
2023-04-26T02:11:49.494Z,74.03
2023-04-26T02:14:19.883Z,74.70
2023-04-26T02:16:50.425Z,75.05
2023-04-26T02:19:21.200Z,75.22
2023-04-26T02:21:56.779Z,75.26
2023-04-26T02:24:29.793Z,76.82
2023-04-26T02:27:04.553Z,76.77
2023-04-26T02:29:43.166Z,77.00
2023-04-26T02:32:14.961Z,76.71
2023-04-26T02:34:46.029Z,76.69
2023-04-26T02:37:16.563Z,77.63
2023-04-26T02:39:52.194Z,76.92
2023-04-26T02:42:22.713Z,78.36
2023-04-26T02:44:53.348Z,78.68
2023-04-26T02:47:23.923Z,78.27
2023-04-26T02:49:54.442Z,77.83
2023-04-26T02:52:24.988Z,77.91
2023-04-26T02:54:57.155Z,78.06
2023-04-26T02:57:27.690Z,78.60
2023-04-26T02:59:58.210Z,76.78
2023-04-26T03:02:28.804Z,76.48
2023-04-26T03:04:59.747Z,76.29
2023-04-26T03:07:30.261Z,77.66
2023-04-26T03:10:02.733Z,76.98
2023-04-26T03:12:33.147Z,76.69
2023-04-26T03:15:04.650Z,76.74
2023-04-26T03:17:35.158Z,76.82
2023-04-26T03:20:07.005Z,76.70
2023-04-26T03:22:38.055Z,77.87
2023-04-26T03:25:10.719Z,78.57
2023-04-26T03:27:41.315Z,78.83
2023-04-26T03:30:12.650Z,79.17
2023-04-26T03:32:43.198Z,78.75
2023-04-26T03:35:13.761Z,77.39
2023-04-26T03:37:44.338Z,78.05
2023-04-26T03:40:17.876Z,78.67
2023-04-26T03:42:48.411Z,78.79
2023-04-26T03:45:18.971Z,77.88
2023-04-26T03:47:49.613Z,78.00
2023-04-26T03:50:20.989Z,78.82
2023-04-26T03:52:51.460Z,78.92
2023-04-26T03:55:23.586Z,79.63
2023-04-26T03:57:54.776Z,80.20
2023-04-26T04:00:25.376Z,79.08
2023-04-26T04:02:56.083Z,78.73
2023-04-26T04:05:26.587Z,78.98
2023-04-26T04:07:57.376Z,79.42
2023-04-26T04:10:29.574Z,79.75
2023-04-26T04:13:00.153Z,80.01
2023-04-26T04:15:30.852Z,79.86
2023-04-26T04:18:01.421Z,79.49
2023-04-26T04:20:34.564Z,79.59
2023-04-26T04:23:07.093Z,79.43
2023-04-26T04:25:39.774Z,77.96
2023-04-26T04:28:10.104Z,78.82
2023-04-26T04:30:40.690Z,78.78
2023-04-26T04:33:11.051Z,78.49
2023-04-26T04:35:43.350Z,78.62
2023-04-26T04:38:14.086Z,78.35
2023-04-26T04:40:46.152Z,78.26
2023-04-26T04:43:16.803Z,78.97
2023-04-26T04:45:47.381Z,78.56
2023-04-26T04:48:17.822Z,78.26
2023-04-26T04:50:48.296Z,77.76
2023-04-26T04:53:18.737Z,77.35
2023-04-26T04:55:51.769Z,76.56
2023-04-26T04:58:23.993Z,76.46
2023-04-26T05:00:55.041Z,76.22
2023-04-26T05:03:25.562Z,76.39
2023-04-26T05:05:56.193Z,76.84
2023-04-26T05:08:26.633Z,76.66
2023-04-26T05:10:58.736Z,77.01
2023-04-26T05:13:29.196Z,77.28
2023-04-26T05:15:59.673Z,76.82
2023-04-26T05:18:30.148Z,78.08
2023-04-26T05:21:01.483Z,79.52
2023-04-26T05:23:31.952Z,79.30
2023-04-26T05:26:07.324Z,79.25
2023-04-26T05:28:37.837Z,79.65
2023-04-26T05:31:10.625Z,79.10
2023-04-26T05:33:42.064Z,78.78
2023-04-26T05:36:12.967Z,78.89
2023-04-26T05:38:43.440Z,79.67
2023-04-26T05:41:15.452Z,79.89
2023-04-26T05:43:45.918Z,80.54
2023-04-26T05:46:16.642Z,79.84
2023-04-26T05:48:47.359Z,80.06
2023-04-26T05:51:17.801Z,79.50
2023-04-26T05:53:48.272Z,79.73
2023-04-26T05:56:20.442Z,79.72
2023-04-26T05:58:51.805Z,79.30
2023-04-26T06:01:22.352Z,79.52
2023-04-26T06:03:55.093Z,79.24
2023-04-26T06:06:27.514Z,78.83
2023-04-26T06:08:58.117Z,78.50
2023-04-26T06:11:30.260Z,78.57
2023-04-26T06:14:00.779Z,78.76
2023-04-26T06:16:31.269Z,79.22
2023-04-26T06:19:02.382Z,79.35
2023-04-26T06:21:32.907Z,80.20
2023-04-26T06:24:03.368Z,80.76
2023-04-26T06:26:35.616Z,81.34
2023-04-26T06:29:06.096Z,81.80
2023-04-26T06:31:36.659Z,81.42
2023-04-26T06:34:08.400Z,81.44
2023-04-26T06:36:39.119Z,82.14
2023-04-26T06:39:09.648Z,82.34
2023-04-26T06:41:41.618Z,82.92
2023-04-26T06:44:12.123Z,83.62
2023-04-26T06:46:42.586Z,83.52
2023-04-26T06:49:13.847Z,84.38
2023-04-26T06:51:44.351Z,84.54
2023-04-26T06:54:15.917Z,85.54
2023-04-26T06:56:47.911Z,85.94
2023-04-26T06:59:18.391Z,85.95
2023-04-26T07:01:49.164Z,86.42
2023-04-26T07:04:21.536Z,86.40
2023-04-26T07:06:52.331Z,87.44
2023-04-26T07:09:22.778Z,87.12
2023-04-26T07:11:54.879Z,87.00
2023-04-26T07:14:25.886Z,87.77
2023-04-26T07:16:56.427Z,88.67
2023-04-26T07:19:26.869Z,88.83
2023-04-26T07:21:57.307Z,89.19
2023-04-26T07:24:27.811Z,89.40
2023-04-26T07:26:59.992Z,88.76
2023-04-26T07:29:30.462Z,88.68
2023-04-26T07:32:01.327Z,89.40
2023-04-26T07:34:31.835Z,89.67
2023-04-26T07:37:02.411Z,90.35
2023-04-26T07:39:32.897Z,90.13
2023-04-26T07:42:05.302Z,90.17
2023-04-26T07:44:35.734Z,90.91
2023-04-26T07:47:06.253Z,90.93
2023-04-26T07:49:36.628Z,91.20
2023-04-26T07:52:07.285Z,92.25
2023-04-26T07:54:37.730Z,91.75
2023-04-26T07:57:09.755Z,92.24
2023-04-26T07:59:40.125Z,92.52
2023-04-26T08:02:10.644Z,92.77
2023-04-26T08:04:41.312Z,93.04
2023-04-26T08:07:11.996Z,93.56
2023-04-26T08:09:42.460Z,93.00
2023-04-26T08:12:15.215Z,93.76
2023-04-26T08:14:47.370Z,93.49
2023-04-26T08:17:17.826Z,93.64
2023-04-26T08:19:48.313Z,93.94
2023-04-26T08:22:18.982Z,93.15
2023-04-26T08:24:51.737Z,93.54
2023-04-26T08:27:24.458Z,93.56
2023-04-26T08:29:54.944Z,93.58
2023-04-26T08:32:25.516Z,93.88
2023-04-26T08:34:56.249Z,93.77
2023-04-26T08:37:28.768Z,93.80
2023-04-26T08:40:02.733Z,93.92
2023-04-26T08:42:37.453Z,94.21
2023-04-26T08:45:12.323Z,94.46
2023-04-26T08:47:47.477Z,94.38
2023-04-26T08:50:19.316Z,94.18
2023-04-26T08:52:52.526Z,94.67
2023-04-26T08:55:23.204Z,94.98
2023-04-26T08:57:55.284Z,94.93
2023-04-26T09:00:41.166Z,95.39
2023-04-26T09:03:14.252Z,95.43
2023-04-26T09:05:46.419Z,95.83
2023-04-26T09:08:22.918Z,96.40
2023-04-26T09:10:53.585Z,96.51
2023-04-26T09:13:36.068Z,96.70
2023-04-26T09:16:06.774Z,97.22
2023-04-26T09:18:38.681Z,97.52
2023-04-26T09:21:14.701Z,97.66
2023-04-26T09:24:00.802Z,97.80
2023-04-26T09:26:34.183Z,98.28
2023-04-26T09:29:21.673Z,98.39
2023-04-26T09:31:53.850Z,98.48
2023-04-26T09:34:25.580Z,98.44
2023-04-26T09:36:58.159Z,98.63
2023-04-26T09:39:38.362Z,98.69
2023-04-26T09:42:10.431Z,99.09
2023-04-26T09:44:45.347Z,99.68
2023-04-26T09:47:19.117Z,99.50
2023-04-26T09:49:52.602Z,99.60
2023-04-26T09:52:27.914Z,99.33
2023-04-26T09:54:59.457Z,99.71
2023-04-26T09:57:30.957Z,99.34
2023-04-26T10:00:13.862Z,100.00
2023-04-26T10:02:45.839Z,99.99
2023-04-26T10:05:17.908Z,99.29
2023-04-26T10:07:49.680Z,99.35
2023-04-26T10:10:22.970Z,99.35
2023-04-26T10:12:54.672Z,98.98
2023-04-26T10:15:28.741Z,99.43
2023-04-26T10:18:03.734Z,99.40
2023-04-26T10:20:35.785Z,99.39
2023-04-26T10:23:14.500Z,99.56
2023-04-26T10:25:47.445Z,100.00
2023-04-26T10:28:19.289Z,100.00
2023-04-26T10:31:02.794Z,99.48
2023-04-26T10:33:40.275Z,99.07
2023-04-26T10:36:16.592Z,99.65
2023-04-26T10:39:26.995Z,99.79
2023-04-26T10:42:26.509Z,99.65
2023-04-26T10:44:59.545Z,99.78
2023-04-26T10:47:38.414Z,99.70
2023-04-26T10:50:12.479Z,99.44
2023-04-26T10:53:31.983Z,99.68
2023-04-26T10:56:03.955Z,99.74
2023-04-26T10:58:36.870Z,99.56
2023-04-26T11:01:12.722Z,99.41
2023-04-26T11:03:48.032Z,99.54
2023-04-26T11:06:22.157Z,99.45
2023-04-26T11:08:54.198Z,99.26
2023-04-26T11:11:33.740Z,99.20
2023-04-26T11:14:06.786Z,99.65
2023-04-26T11:16:38.527Z,99.07
2023-04-26T11:19:13.911Z,99.40
2023-04-26T11:21:45.426Z,99.21
2023-04-26T11:24:19.709Z,99.48
2023-04-26T11:26:55.906Z,99.14
2023-04-26T11:29:27.493Z,99.21
2023-04-26T11:32:00.837Z,99.04
2023-04-26T11:34:39.389Z,99.63
2023-04-26T11:37:11.309Z,99.72
2023-04-26T11:39:42.719Z,99.65
2023-04-26T11:42:14.969Z,99.59
2023-04-26T11:44:47.753Z,100.00
2023-04-26T11:47:19.667Z,99.97
2023-04-26T11:49:53.487Z,99.33
2023-04-26T11:52:25.423Z,99.29
2023-04-26T11:55:07.212Z,99.67
2023-04-26T11:57:38.842Z,100.00
2023-04-26T12:00:18.183Z,100.00
2023-04-26T12:02:51.334Z,100.00
2023-04-26T12:05:29.333Z,100.00
2023-04-26T12:08:01.745Z,100.00
2023-04-26T12:10:41.588Z,100.00
2023-04-26T12:13:17.597Z,100.00
2023-04-26T12:15:54.507Z,100.00
2023-04-26T12:18:36.475Z,100.00
2023-04-26T12:21:10.041Z,100.00
2023-04-26T12:23:43.283Z,100.00
2023-04-26T12:26:17.915Z,100.00
2023-04-26T12:28:49.224Z,100.00
2023-04-26T12:31:20.480Z,100.00
2023-04-26T12:33:51.872Z,100.00
2023-04-26T12:36:24.902Z,100.00
2023-04-26T12:38:57.554Z,100.00
2023-04-26T12:41:29.129Z,100.00
2023-04-26T12:44:01.587Z,100.00
2023-04-26T12:46:33.106Z,100.00
2023-04-26T12:49:04.842Z,100.00
2023-04-26T12:51:38.231Z,100.00
2023-04-26T12:54:09.734Z,100.00
2023-04-26T12:56:44.767Z,100.00
2023-04-26T12:59:16.275Z,100.00
2023-04-26T13:01:47.948Z,100.00
2023-04-26T13:04:19.658Z,100.00
2023-04-26T13:06:56.122Z,100.00
2023-04-26T13:09:28.134Z,100.00
2023-04-26T13:11:59.832Z,100.00
2023-04-26T13:14:31.344Z,100.00
2023-04-26T13:17:02.853Z,100.00
2023-04-26T13:19:34.400Z,100.00
2023-04-26T13:22:09.740Z,100.00
2023-04-26T13:24:41.784Z,100.00
2023-04-26T13:27:13.152Z,100.00
2023-04-26T13:29:44.592Z,100.00
2023-04-26T13:32:19.060Z,100.00
2023-04-26T13:34:52.885Z,100.00
2023-04-26T13:37:26.002Z,100.00
2023-04-26T13:39:57.144Z,100.00
2023-04-26T13:42:28.833Z,100.00
2023-04-26T13:45:00.753Z,100.00
2023-04-26T13:47:39.498Z,100.00
2023-04-26T13:50:11.788Z,100.00
2023-04-26T13:52:45.114Z,100.00
2023-04-26T13:55:20.010Z,100.00
2023-04-26T13:57:51.562Z,100.00
2023-04-26T14:00:24.133Z,100.00
2023-04-26T14:02:56.225Z,100.00
2023-04-26T14:05:29.187Z,100.00
2023-04-26T14:08:05.044Z,100.00
2023-04-26T14:10:36.344Z,100.00
2023-04-26T14:13:10.236Z,100.00
2023-04-26T14:15:41.607Z,100.00
2023-04-26T14:18:13.053Z,100.00
2023-04-26T14:20:44.441Z,100.00
2023-04-26T14:23:17.863Z,100.00
2023-04-26T14:25:49.105Z,100.00
2023-04-26T14:28:20.418Z,100.00
2023-04-26T14:30:51.638Z,100.00
2023-04-26T14:33:25.455Z,100.00
2023-04-26T14:35:57.322Z,100.00
2023-04-26T14:38:30.496Z,100.00
2023-04-26T14:41:01.853Z,100.00
2023-04-26T14:43:34.795Z,100.00
2023-04-26T14:46:06.198Z,100.00
2023-04-26T14:48:37.610Z,100.00
2023-04-26T14:51:09.266Z,100.00
2023-04-26T14:53:42.409Z,100.00
2023-04-26T14:56:14.758Z,100.00
2023-04-26T14:58:46.081Z,99.93
2023-04-26T15:01:16.638Z,99.90
2023-04-26T15:03:52.778Z,99.77
2023-04-26T15:06:33.797Z,99.88
2023-04-26T15:09:10.858Z,99.53
2023-04-26T15:11:51.827Z,99.01
2023-04-26T15:14:29.407Z,99.05
2023-04-26T15:17:00.460Z,98.75
2023-04-26T15:19:35.227Z,98.97
2023-04-26T15:22:06.573Z,98.53
2023-04-26T15:24:40.987Z,98.64
2023-04-26T15:27:12.091Z,98.45
2023-04-26T15:30:34.397Z,98.73
2023-04-26T15:33:07.724Z,98.55
2023-04-26T15:35:39.372Z,98.39
2023-04-26T15:38:10.687Z,98.38
2023-04-26T15:40:43.632Z,98.41
2023-04-26T15:43:15.304Z,98.22
2023-04-26T15:45:46.584Z,98.31
2023-04-26T15:48:17.762Z,98.62
2023-04-26T15:50:49.066Z,98.43
2023-04-26T15:53:20.529Z,98.43
2023-04-26T15:55:53.903Z,98.84
2023-04-26T15:58:25.335Z,98.65
2023-04-26T16:00:56.583Z,98.32
2023-04-26T16:03:28.563Z,98.31
2023-04-26T16:05:59.924Z,98.68
2023-04-26T16:08:39.979Z,98.71
2023-04-26T16:11:13.876Z,98.57
2023-04-26T16:13:45.564Z,98.87
2023-04-26T16:16:17.112Z,98.81
2023-04-26T16:18:48.592Z,98.64
2023-04-26T16:21:19.912Z,98.93
2023-04-26T16:23:52.877Z,98.56
2023-04-26T16:26:25.797Z,98.36
2023-04-26T16:28:57.510Z,98.51
2023-04-26T16:31:28.853Z,98.23
2023-04-26T16:34:00.448Z,98.31
2023-04-26T16:36:32.543Z,98.45
2023-04-26T16:39:03.748Z,99.42
2023-04-26T16:41:36.680Z,99.06
2023-04-26T16:44:08.077Z,98.84
2023-04-26T16:46:39.502Z,98.72
2023-04-26T16:49:12.097Z,98.85
2023-04-26T16:51:52.397Z,98.70
2023-04-26T16:54:23.987Z,99.04
2023-04-26T16:56:57.653Z,99.20
2023-04-26T16:59:29.464Z,98.71
2023-04-26T17:02:00.684Z,98.68
2023-04-26T17:04:32.670Z,98.62
2023-04-26T17:07:05.045Z,98.36
2023-04-26T17:09:38.030Z,97.89
2023-04-26T17:12:12.079Z,97.77
2023-04-26T17:14:44.044Z,97.18
2023-04-26T17:17:15.612Z,97.19
2023-04-26T17:19:47.156Z,96.92
2023-04-26T17:22:18.789Z,96.47
2023-04-26T17:24:50.430Z,96.61
2023-04-26T17:27:25.706Z,96.52
2023-04-26T17:29:57.329Z,96.88
2023-04-26T17:32:29.264Z,97.19
2023-04-26T17:35:00.654Z,97.46
2023-04-26T17:37:32.094Z,97.50
2023-04-26T17:40:04.997Z,98.07
2023-04-26T17:42:38.748Z,98.18
2023-04-26T17:45:13.416Z,98.06
2023-04-26T17:47:46.907Z,97.78
2023-04-26T17:50:21.838Z,97.82
2023-04-26T17:52:57.949Z,97.48
2023-04-26T17:55:32.016Z,97.24
2023-04-26T17:58:04.017Z,97.41
2023-04-26T18:00:34.575Z,97.48
2023-04-26T18:03:05.920Z,98.26
2023-04-26T18:05:37.075Z,98.56
2023-04-26T18:08:07.539Z,98.87
2023-04-26T18:10:38.078Z,99.05
2023-04-26T18:13:11.897Z,99.36
2023-04-26T18:15:42.444Z,99.69
2023-04-26T18:18:12.985Z,99.50
2023-04-26T18:20:43.495Z,99.08
2023-04-26T18:23:13.958Z,98.97
2023-04-26T18:25:44.401Z,98.80
2023-04-26T18:28:16.431Z,98.95
2023-04-26T18:30:46.952Z,98.63
2023-04-26T18:33:17.586Z,98.77
2023-04-26T18:35:48.180Z,98.67
2023-04-26T18:38:19.027Z,98.68
2023-04-26T18:40:50.614Z,98.52
2023-04-26T18:43:22.725Z,98.63
2023-04-26T18:45:53.774Z,99.20
2023-04-26T18:48:24.303Z,99.72
2023-04-26T18:50:55.019Z,99.46
2023-04-26T18:53:25.508Z,100.00
2023-04-26T18:55:56.148Z,100.00
2023-04-26T18:58:28.288Z,100.00
2023-04-26T19:00:58.734Z,99.58
2023-04-26T19:03:29.458Z,99.88
2023-04-26T19:06:00.093Z,100.00
2023-04-26T19:08:30.638Z,99.68
2023-04-26T19:11:01.156Z,99.55
2023-04-26T19:13:33.806Z,99.44
2023-04-26T19:16:05.319Z,99.04
2023-04-26T19:18:36.946Z,98.75
2023-04-26T19:21:08.169Z,98.65
2023-04-26T19:23:39.316Z,98.54
2023-04-26T19:26:10.662Z,98.22
2023-04-26T19:28:43.182Z,97.40
2023-04-26T19:31:13.738Z,97.80
2023-04-26T19:33:44.523Z,97.74
2023-04-26T19:36:15.004Z,97.96
2023-04-26T19:38:49.987Z,98.04
2023-04-26T19:41:20.441Z,98.60
2023-04-26T19:43:52.533Z,98.42
2023-04-26T19:46:23.098Z,98.62
2023-04-26T19:48:53.734Z,97.92
2023-04-26T19:51:24.213Z,98.11
2023-04-26T19:53:54.637Z,97.48
2023-04-26T19:56:25.158Z,97.25
2023-04-26T19:58:57.285Z,97.04
2023-04-26T20:01:27.981Z,97.29
2023-04-26T20:03:58.635Z,96.80
2023-04-26T20:06:29.429Z,96.96
2023-04-26T20:08:59.824Z,96.90
2023-04-26T20:11:30.359Z,96.72
2023-04-26T20:14:02.555Z,95.47
2023-04-26T20:16:33.375Z,95.10
2023-04-26T20:19:03.816Z,94.93
2023-04-26T20:21:34.404Z,94.49
2023-04-26T20:24:04.819Z,94.34
2023-04-26T20:26:35.447Z,93.66
2023-04-26T20:29:07.847Z,92.64
2023-04-26T20:31:39.001Z,92.50
2023-04-26T20:34:09.631Z,91.69
2023-04-26T20:36:40.164Z,91.61
2023-04-26T20:39:11.976Z,90.89
2023-04-26T20:41:42.332Z,90.21
2023-04-26T20:44:14.404Z,89.01
2023-04-26T20:46:44.891Z,88.25
2023-04-26T20:49:18.103Z,87.05
2023-04-26T20:51:48.506Z,86.60
2023-04-26T20:54:18.962Z,86.24
2023-04-26T20:56:49.482Z,85.84
2023-04-26T20:59:21.625Z,83.75
2023-04-26T21:01:52.053Z,83.75
2023-04-26T21:04:22.770Z,83.53
2023-04-26T21:06:53.512Z,83.06
2023-04-26T21:09:23.973Z,82.63
2023-04-26T21:11:54.450Z,81.46
2023-04-26T21:14:26.588Z,80.97
2023-04-26T21:16:57.305Z,81.42
2023-04-26T21:19:27.826Z,79.53
2023-04-26T21:21:58.347Z,78.61
2023-04-26T21:24:28.948Z,79.41
2023-04-26T21:26:59.387Z,78.39
2023-04-26T21:29:32.434Z,77.57
2023-04-26T21:32:02.968Z,76.73
2023-04-26T21:34:33.364Z,74.89
2023-04-26T21:37:04.098Z,74.86
2023-04-26T21:39:34.670Z,75.08
2023-04-26T21:42:13.426Z,75.25
2023-04-26T21:44:45.487Z,75.82
2023-04-26T21:47:16.545Z,75.24
2023-04-26T21:49:47.045Z,73.06
2023-04-26T21:52:17.443Z,73.76
2023-04-26T21:54:47.990Z,71.79
2023-04-26T21:57:20.672Z,68.07
2023-04-26T21:59:52.855Z,66.82
2023-04-26T22:02:23.754Z,67.01
2023-04-26T22:04:56.171Z,64.21
2023-04-26T22:07:26.614Z,66.44
2023-04-26T22:09:57.148Z,62.20
2023-04-26T22:12:28.354Z,67.08
2023-04-26T22:15:00.456Z,64.72
2023-04-26T22:17:30.969Z,63.58
2023-04-26T22:20:01.503Z,63.69
2023-04-26T22:22:31.925Z,63.25
2023-04-26T22:25:02.440Z,60.99
2023-04-26T22:27:33.553Z,62.35
2023-04-26T22:30:20.514Z,60.55
2023-04-26T22:32:56.169Z,59.57
2023-04-26T22:35:27.246Z,56.44
2023-04-26T22:37:57.587Z,55.83
2023-04-26T22:40:28.532Z,56.69
2023-04-26T22:42:58.927Z,53.54
2023-04-26T22:45:31.303Z,54.07
2023-04-26T22:48:01.869Z,53.22
2023-04-26T22:50:32.486Z,52.51
2023-04-26T22:53:02.959Z,51.20
2023-04-26T22:55:33.432Z,50.88
2023-04-26T22:58:03.870Z,50.40
2023-04-26T23:00:35.934Z,48.42
2023-04-26T23:03:06.576Z,48.04
2023-04-26T23:05:37.124Z,48.17
2023-04-26T23:08:07.886Z,49.79
2023-04-26T23:10:38.326Z,49.32
2023-04-26T23:13:08.887Z,47.88
2023-04-26T23:15:41.043Z,47.60
2023-04-26T23:18:11.439Z,48.15
2023-04-26T23:20:41.883Z,44.54
2023-04-26T23:23:12.257Z,42.56
2023-04-26T23:25:43.107Z,43.94
2023-04-26T23:28:13.570Z,43.01
2023-04-26T23:30:45.684Z,43.09
2023-04-26T23:33:16.094Z,43.44
2023-04-26T23:35:46.672Z,43.71
2023-04-26T23:38:17.151Z,44.23
2023-04-26T23:40:47.502Z,42.51
2023-04-26T23:43:17.938Z,42.60
2023-04-26T23:45:49.959Z,43.08
2023-04-26T23:48:21.333Z,45.32
2023-04-26T23:50:51.809Z,43.98
2023-04-26T23:53:22.280Z,43.44
2023-04-26T23:55:52.713Z,43.11
2023-04-26T23:58:23.218Z,43.39
